sensor_id;sensor_type;location;lat;lon;timestamp;pressure;altitude;pressure_sealevel;temperature;humidity
20027;BME280;10174;42.688;23.344;2023-07-13T00:00:46;95549.03;;;20.74;72.85
20027;BME280;10174;42.688;23.344;2023-07-13T00:03:11;95531.69;;;20.70;73.21
20027;BME280;10174;42.688;23.344;2023-07-13T00:05:38;95533.97;;;20.68;72.78
20027;BME280;10174;42.688;23.344;2023-07-13T00:08:04;95542.75;;;20.73;72.94
20027;BME280;10174;42.688;23.344;2023-07-13T00:10:30;95554.66;;;20.77;72.92
20027;BME280;10174;42.688;23.344;2023-07-13T00:12:55;95484.16;;;20.27;73.58
20027;BME280;10174;42.688;23.344;2023-07-13T00:15:24;95551.25;;;20.63;73.93
20027;BME280;10174;42.688;23.344;2023-07-13T00:17:51;95524.91;;;20.58;73.72
20027;BME280;10174;42.688;23.344;2023-07-13T00:20:16;95544.06;;;20.67;73.39
20027;BME280;10174;42.688;23.344;2023-07-13T00:22:42;95519.63;;;20.62;73.71
20027;BME280;10174;42.688;23.344;2023-07-13T00:25:10;95544.53;;;20.78;73.77
20027;BME280;10174;42.688;23.344;2023-07-13T00:27:36;95536.38;;;20.69;73.74
20027;BME280;10174;42.688;23.344;2023-07-13T00:30:02;95442.63;;;20.13;73.94
20027;BME280;10174;42.688;23.344;2023-07-13T00:32:27;95539.09;;;20.69;74.07
20027;BME280;10174;42.688;23.344;2023-07-13T00:34:54;95511.28;;;20.50;74.51
20027;BME280;10174;42.688;23.344;2023-07-13T00:37:19;95524.31;;;20.61;74.86
20027;BME280;10174;42.688;23.344;2023-07-13T00:39:45;95462.19;;;20.15;76.15
20027;BME280;10174;42.688;23.344;2023-07-13T00:42:10;95418.38;;;19.85;76.69
20027;BME280;10174;42.688;23.344;2023-07-13T00:44:36;95501.84;;;20.29;77.12
20027;BME280;10174;42.688;23.344;2023-07-13T00:47:02;95541.13;;;20.46;77.54
20027;BME280;10174;42.688;23.344;2023-07-13T00:49:30;95543.69;;;20.42;77.69
20027;BME280;10174;42.688;23.344;2023-07-13T00:51:57;95542.09;;;20.41;77.80
20027;BME280;10174;42.688;23.344;2023-07-13T00:54:39;95519.63;;;20.27;77.91
20027;BME280;10174;42.688;23.344;2023-07-13T00:57:09;95547.72;;;20.45;77.79
20027;BME280;10174;42.688;23.344;2023-07-13T00:59:38;95541.63;;;20.39;77.91
20027;BME280;10174;42.688;23.344;2023-07-13T01:02:05;95496.53;;;20.16;77.97
20027;BME280;10174;42.688;23.344;2023-07-13T01:04:30;95485.47;;;20.21;78.08
20027;BME280;10174;42.688;23.344;2023-07-13T01:06:56;95432.97;;;19.80;78.73
20027;BME280;10174;42.688;23.344;2023-07-13T01:09:23;95529.91;;;20.30;79.90
20027;BME280;10174;42.688;23.344;2023-07-13T01:11:48;95531.03;;;20.20;81.25
20027;BME280;10174;42.688;23.344;2023-07-13T01:14:14;95528.63;;;20.19;81.65
20027;BME280;10174;42.688;23.344;2023-07-13T01:16:43;95529.91;;;20.13;82.40
20027;BME280;10174;42.688;23.344;2023-07-13T01:19:29;95535.34;;;20.13;82.64
20027;BME280;10174;42.688;23.344;2023-07-13T01:22:02;95502.44;;;20.00;82.67
20027;BME280;10174;42.688;23.344;2023-07-13T01:24:28;95519.59;;;20.09;83.27
20027;BME280;10174;42.688;23.344;2023-07-13T01:26:54;95488.47;;;19.84;83.83
20027;BME280;10174;42.688;23.344;2023-07-13T01:29:20;95507.88;;;20.00;83.86
20027;BME280;10174;42.688;23.344;2023-07-13T01:31:46;95519.91;;;20.08;83.98
20027;BME280;10174;42.688;23.344;2023-07-13T01:34:11;95517.38;;;20.11;84.32
20027;BME280;10174;42.688;23.344;2023-07-13T01:36:37;95437.38;;;19.50;85.06
20027;BME280;10174;42.688;23.344;2023-07-13T01:39:03;95506.44;;;19.94;85.68
20027;BME280;10174;42.688;23.344;2023-07-13T01:41:28;95518.47;;;20.02;85.61
20027;BME280;10174;42.688;23.344;2023-07-13T01:43:54;95460.16;;;19.54;86.42
20027;BME280;10174;42.688;23.344;2023-07-13T01:46:19;95480.13;;;19.81;86.51
20027;BME280;10174;42.688;23.344;2023-07-13T01:48:44;95508.03;;;19.95;87.06
20027;BME280;10174;42.688;23.344;2023-07-13T01:51:10;95525.84;;;20.01;87.20
20027;BME280;10174;42.688;23.344;2023-07-13T01:53:36;95535.00;;;20.05;87.36
20027;BME280;10174;42.688;23.344;2023-07-13T01:56:02;95514.97;;;20.10;87.55
20027;BME280;10174;42.688;23.344;2023-07-13T01:58:27;95489.91;;;19.90;87.50
20027;BME280;10174;42.688;23.344;2023-07-13T02:00:52;95523.13;;;20.01;88.10
20027;BME280;10174;42.688;23.344;2023-07-13T02:03:18;95521.19;;;19.93;88.03
20027;BME280;10174;42.688;23.344;2023-07-13T02:05:45;95479.88;;;19.60;88.69
20027;BME280;10174;42.688;23.344;2023-07-13T02:08:10;95527.44;;;19.93;88.66
20027;BME280;10174;42.688;23.344;2023-07-13T02:10:37;95534.97;;;19.88;89.29
20027;BME280;10174;42.688;23.344;2023-07-13T02:13:05;95499.44;;;19.62;89.34
20027;BME280;10174;42.688;23.344;2023-07-13T02:15:31;95504.28;;;19.73;89.29
20027;BME280;10174;42.688;23.344;2023-07-13T02:17:56;95462.31;;;19.34;89.34
20027;BME280;10174;42.688;23.344;2023-07-13T02:20:22;95530.44;;;19.74;90.16
20027;BME280;10174;42.688;23.344;2023-07-13T02:22:47;95513.09;;;19.70;90.03
20027;BME280;10174;42.688;23.344;2023-07-13T02:25:13;95537.63;;;19.70;90.55
20027;BME280;10174;42.688;23.344;2023-07-13T02:27:39;95538.56;;;19.66;90.91
20027;BME280;10174;42.688;23.344;2023-07-13T02:30:05;95544.59;;;19.54;91.18
20027;BME280;10174;42.688;23.344;2023-07-13T02:32:30;95550.06;;;19.54;91.59
20027;BME280;10174;42.688;23.344;2023-07-13T02:34:56;95525.00;;;19.43;91.96
20027;BME280;10174;42.688;23.344;2023-07-13T02:37:21;95446.78;;;18.86;91.50
20027;BME280;10174;42.688;23.344;2023-07-13T02:39:47;95527.06;;;19.37;91.49
20027;BME280;10174;42.688;23.344;2023-07-13T02:42:13;95522.44;;;19.38;91.29
20027;BME280;10174;42.688;23.344;2023-07-13T02:44:38;95483.06;;;19.13;91.11
20027;BME280;10174;42.688;23.344;2023-07-13T02:47:04;95502.22;;;19.30;91.13
20027;BME280;10174;42.688;23.344;2023-07-13T02:49:29;95489.38;;;19.22;91.35
20027;BME280;10174;42.688;23.344;2023-07-13T02:51:54;95542.38;;;19.56;90.72
20027;BME280;10174;42.688;23.344;2023-07-13T02:54:20;95531.75;;;19.46;90.61
20027;BME280;10174;42.688;23.344;2023-07-13T02:56:45;95543.50;;;19.55;91.09
20027;BME280;10174;42.688;23.344;2023-07-13T02:59:11;95521.47;;;19.34;91.40
20027;BME280;10174;42.688;23.344;2023-07-13T03:01:37;95522.72;;;19.28;91.36
20027;BME280;10174;42.688;23.344;2023-07-13T03:04:03;95552.25;;;19.43;91.92
20027;BME280;10174;42.688;23.344;2023-07-13T03:06:31;95564.56;;;19.40;92.50
20027;BME280;10174;42.688;23.344;2023-07-13T03:08:56;95549.31;;;19.31;92.69
20027;BME280;10174;42.688;23.344;2023-07-13T03:11:22;95514.44;;;19.10;93.00
20027;BME280;10174;42.688;23.344;2023-07-13T03:13:47;95484.25;;;18.89;92.78
20027;BME280;10174;42.688;23.344;2023-07-13T03:16:14;95564.56;;;19.40;93.23
20027;BME280;10174;42.688;23.344;2023-07-13T03:18:44;95541.28;;;19.26;93.21
20027;BME280;10174;42.688;23.344;2023-07-13T03:21:09;95529.84;;;19.15;93.39
20027;BME280;10174;42.688;23.344;2023-07-13T03:23:35;95531.19;;;19.26;93.51
20027;BME280;10174;42.688;23.344;2023-07-13T03:26:09;95541.47;;;19.29;93.67
20027;BME280;10174;42.688;23.344;2023-07-13T03:28:36;95558.06;;;19.50;93.17
20027;BME280;10174;42.688;23.344;2023-07-13T03:31:03;95565.41;;;19.50;93.14
20027;BME280;10174;42.688;23.344;2023-07-13T03:33:29;95557.88;;;19.47;93.41
20027;BME280;10174;42.688;23.344;2023-07-13T03:35:55;95459.13;;;18.92;93.43
20027;BME280;10174;42.688;23.344;2023-07-13T03:38:21;95555.78;;;19.44;93.91
20027;BME280;10174;42.688;23.344;2023-07-13T03:40:46;95546.97;;;19.47;93.84
20027;BME280;10174;42.688;23.344;2023-07-13T03:43:12;95449.78;;;18.84;93.50
20027;BME280;10174;42.688;23.344;2023-07-13T03:45:38;95549.91;;;19.59;93.83
20027;BME280;10174;42.688;23.344;2023-07-13T03:48:03;95550.88;;;19.63;93.10
20027;BME280;10174;42.688;23.344;2023-07-13T03:50:30;95551.09;;;19.75;93.15
20027;BME280;10174;42.688;23.344;2023-07-13T03:52:56;95569.91;;;19.86;92.48
20027;BME280;10174;42.688;23.344;2023-07-13T03:55:22;95556.75;;;19.88;92.38
20027;BME280;10174;42.688;23.344;2023-07-13T03:57:47;95448.50;;;19.22;92.63
20027;BME280;10174;42.688;23.344;2023-07-13T04:00:13;95542.50;;;19.82;92.76
20027;BME280;10174;42.688;23.344;2023-07-13T04:02:39;95560.31;;;19.97;92.71
20027;BME280;10174;42.688;23.344;2023-07-13T04:05:04;95560.50;;;20.01;92.41
20027;BME280;10174;42.688;23.344;2023-07-13T04:07:30;95449.84;;;19.42;92.19
20027;BME280;10174;42.688;23.344;2023-07-13T04:09:55;95552.66;;;20.17;92.23
20027;BME280;10174;42.688;23.344;2023-07-13T04:12:21;95538.38;;;20.11;91.85
20027;BME280;10174;42.688;23.344;2023-07-13T04:14:46;95500.03;;;19.90;91.70
20027;BME280;10174;42.688;23.344;2023-07-13T04:17:11;95551.72;;;20.30;91.02
20027;BME280;10174;42.688;23.344;2023-07-13T04:19:37;95560.72;;;20.39;87.42
20027;BME280;10174;42.688;23.344;2023-07-13T04:22:02;95572.75;;;20.47;86.86
20027;BME280;10174;42.688;23.344;2023-07-13T04:24:28;95553.00;;;20.41;86.77
20027;BME280;10174;42.688;23.344;2023-07-13T04:26:53;95580.97;;;20.73;86.54
20027;BME280;10174;42.688;23.344;2023-07-13T04:29:18;95559.13;;;20.73;85.79
20027;BME280;10174;42.688;23.344;2023-07-13T04:31:44;95500.69;;;20.39;85.92
20027;BME280;10174;42.688;23.344;2023-07-13T04:34:09;95571.16;;;20.98;85.91
20027;BME280;10174;42.688;23.344;2023-07-13T04:36:34;95564.09;;;20.97;86.13
20027;BME280;10174;42.688;23.344;2023-07-13T04:39:02;95568.44;;;21.07;86.35
20027;BME280;10174;42.688;23.344;2023-07-13T04:41:28;95566.16;;;21.09;85.79
20027;BME280;10174;42.688;23.344;2023-07-13T04:43:53;95506.81;;;20.71;82.96
20027;BME280;10174;42.688;23.344;2023-07-13T04:46:19;95571.13;;;21.25;82.27
20027;BME280;10174;42.688;23.344;2023-07-13T04:48:44;95524.56;;;21.04;81.35
20027;BME280;10174;42.688;23.344;2023-07-13T04:51:10;95563.44;;;21.18;80.86
20027;BME280;10174;42.688;23.344;2023-07-13T04:53:36;95584.72;;;21.42;80.36
20027;BME280;10174;42.688;23.344;2023-07-13T04:56:02;95607.84;;;21.62;79.94
20027;BME280;10174;42.688;23.344;2023-07-13T04:58:28;95600.25;;;21.68;79.24
20027;BME280;10174;42.688;23.344;2023-07-13T05:00:59;95522.28;;;21.23;78.32
20027;BME280;10174;42.688;23.344;2023-07-13T05:03:25;95553.06;;;21.50;78.40
20027;BME280;10174;42.688;23.344;2023-07-13T05:05:58;95502.50;;;21.17;78.58
20027;BME280;10174;42.688;23.344;2023-07-13T05:08:24;95567.13;;;21.69;78.00
20027;BME280;10174;42.688;23.344;2023-07-13T05:10:50;95598.69;;;21.97;78.39
20027;BME280;10174;42.688;23.344;2023-07-13T05:13:16;95594.19;;;22.01;78.40
20027;BME280;10174;42.688;23.344;2023-07-13T05:15:41;95576.53;;;21.89;78.13
20027;BME280;10174;42.688;23.344;2023-07-13T05:18:06;95605.13;;;22.01;77.87
20027;BME280;10174;42.688;23.344;2023-07-13T05:20:32;95599.16;;;21.99;77.44
20027;BME280;10174;42.688;23.344;2023-07-13T05:22:57;95580.53;;;21.92;77.28
20027;BME280;10174;42.688;23.344;2023-07-13T05:25:23;95595.41;;;22.12;77.01
20027;BME280;10174;42.688;23.344;2023-07-13T05:27:48;95591.81;;;22.20;76.51
20027;BME280;10174;42.688;23.344;2023-07-13T05:30:13;95602.03;;;22.41;76.23
20027;BME280;10174;42.688;23.344;2023-07-13T05:32:39;95515.03;;;21.96;75.72
20027;BME280;10174;42.688;23.344;2023-07-13T05:35:05;95609.25;;;22.67;76.15
20027;BME280;10174;42.688;23.344;2023-07-13T05:37:30;95527.19;;;22.37;75.74
20027;BME280;10174;42.688;23.344;2023-07-13T05:39:56;95606.69;;;23.04;75.24
20027;BME280;10174;42.688;23.344;2023-07-13T05:42:21;95609.91;;;23.39;73.87
20027;BME280;10174;42.688;23.344;2023-07-13T05:44:46;95613.78;;;23.72;72.69
20027;BME280;10174;42.688;23.344;2023-07-13T05:47:12;95545.41;;;23.54;70.97
20027;BME280;10174;42.688;23.344;2023-07-13T05:49:39;95590.63;;;24.84;67.27
20027;BME280;10174;42.688;23.344;2023-07-13T05:52:05;95520.28;;;25.23;64.54
20027;BME280;10174;42.688;23.344;2023-07-13T05:54:30;95589.13;;;26.03;62.50
20027;BME280;10174;42.688;23.344;2023-07-13T05:56:55;95575.09;;;25.76;62.31
20027;BME280;10174;42.688;23.344;2023-07-13T05:59:21;95576.06;;;25.84;61.18
20027;BME280;10174;42.688;23.344;2023-07-13T06:01:47;95575.19;;;25.64;61.93
20027;BME280;10174;42.688;23.344;2023-07-13T06:04:12;95581.47;;;25.49;62.03
20027;BME280;10174;42.688;23.344;2023-07-13T06:06:37;95567.09;;;25.39;62.10
20027;BME280;10174;42.688;23.344;2023-07-13T06:09:03;95513.78;;;25.44;62.88
20027;BME280;10174;42.688;23.344;2023-07-13T06:11:28;95582.72;;;27.06;59.24
20027;BME280;10174;42.688;23.344;2023-07-13T06:13:55;95597.59;;;27.20;58.34
20027;BME280;10174;42.688;23.344;2023-07-13T06:16:22;95520.09;;;27.26;57.80
20027;BME280;10174;42.688;23.344;2023-07-13T06:18:48;95597.81;;;28.43;55.33
20027;BME280;10174;42.688;23.344;2023-07-13T06:21:15;95524.19;;;29.60;50.55
20027;BME280;10174;42.688;23.344;2023-07-13T06:23:41;95591.31;;;31.02;45.42
20027;BME280;10174;42.688;23.344;2023-07-13T06:26:08;95609.66;;;31.36;45.31
20027;BME280;10174;42.688;23.344;2023-07-13T06:28:35;95604.63;;;30.19;48.22
20027;BME280;10174;42.688;23.344;2023-07-13T06:31:01;95605.19;;;29.57;48.95
20027;BME280;10174;42.688;23.344;2023-07-13T06:33:26;95599.78;;;29.30;49.76
20027;BME280;10174;42.688;23.344;2023-07-13T06:35:52;95586.81;;;28.74;51.52
20027;BME280;10174;42.688;23.344;2023-07-13T06:38:20;95602.06;;;28.14;53.61
20027;BME280;10174;42.688;23.344;2023-07-13T06:40:45;95582.34;;;27.66;54.97
20027;BME280;10174;42.688;23.344;2023-07-13T06:43:10;95606.72;;;27.64;55.16
20027;BME280;10174;42.688;23.344;2023-07-13T06:45:45;95599.66;;;27.66;55.78
20027;BME280;10174;42.688;23.344;2023-07-13T06:48:13;95588.81;;;27.15;57.30
20027;BME280;10174;42.688;23.344;2023-07-13T06:50:39;95588.63;;;27.04;57.64
20027;BME280;10174;42.688;23.344;2023-07-13T06:53:04;95575.56;;;27.01;57.67
20027;BME280;10174;42.688;23.344;2023-07-13T06:55:29;95609.03;;;27.39;57.84
20027;BME280;10174;42.688;23.344;2023-07-13T06:57:55;95503.34;;;26.72;57.85
20027;BME280;10174;42.688;23.344;2023-07-13T07:00:20;95487.16;;;26.51;55.80
20027;BME280;10174;42.688;23.344;2023-07-13T07:02:45;95604.59;;;27.34;55.96
20027;BME280;10174;42.688;23.344;2023-07-13T07:05:11;95605.88;;;27.20;55.92
20027;BME280;10174;42.688;23.344;2023-07-13T07:07:36;95595.06;;;27.31;55.89
20027;BME280;10174;42.688;23.344;2023-07-13T07:10:02;95517.78;;;27.28;53.15
20027;BME280;10174;42.688;23.344;2023-07-13T07:12:28;95601.19;;;27.64;54.08
20027;BME280;10174;42.688;23.344;2023-07-13T07:14:54;95575.16;;;27.84;52.49
20027;BME280;10174;42.688;23.344;2023-07-13T07:17:19;95582.69;;;27.87;52.57
20027;BME280;10174;42.688;23.344;2023-07-13T07:19:44;95564.44;;;27.79;52.58
20027;BME280;10174;42.688;23.344;2023-07-13T07:22:10;95579.94;;;28.11;52.67
20027;BME280;10174;42.688;23.344;2023-07-13T07:24:36;95588.28;;;28.41;51.49
20027;BME280;10174;42.688;23.344;2023-07-13T07:27:01;95588.03;;;28.50;50.80
20027;BME280;10174;42.688;23.344;2023-07-13T07:29:26;95592.53;;;28.35;51.43
20027;BME280;10174;42.688;23.344;2023-07-13T07:31:53;95595.34;;;28.38;50.63
20027;BME280;10174;42.688;23.344;2023-07-13T07:34:19;95570.22;;;28.20;50.98
20027;BME280;10174;42.688;23.344;2023-07-13T07:36:44;95581.88;;;28.33;51.49
20027;BME280;10174;42.688;23.344;2023-07-13T07:39:10;95584.59;;;28.30;50.84
20027;BME280;10174;42.688;23.344;2023-07-13T07:41:35;95483.34;;;27.87;51.12
20027;BME280;10174;42.688;23.344;2023-07-13T07:44:02;95570.44;;;28.35;50.37
20027;BME280;10174;42.688;23.344;2023-07-13T07:46:28;95564.38;;;28.52;50.86
20027;BME280;10174;42.688;23.344;2023-07-13T07:48:55;95569.16;;;28.82;50.37
20027;BME280;10174;42.688;23.344;2023-07-13T07:51:20;95556.72;;;28.99;49.79
20027;BME280;10174;42.688;23.344;2023-07-13T07:53:46;95549.28;;;29.41;47.42
20027;BME280;10174;42.688;23.344;2023-07-13T07:56:12;95540.47;;;29.28;48.13
20027;BME280;10174;42.688;23.344;2023-07-13T07:58:37;95562.03;;;29.49;48.46
20027;BME280;10174;42.688;23.344;2023-07-13T08:01:04;95555.03;;;29.62;48.93
20027;BME280;10174;42.688;23.344;2023-07-13T08:03:30;95545.72;;;29.78;48.33
20027;BME280;10174;42.688;23.344;2023-07-13T08:05:55;95538.59;;;30.29;46.00
20027;BME280;10174;42.688;23.344;2023-07-13T08:08:21;95540.47;;;30.14;47.52
20027;BME280;10174;42.688;23.344;2023-07-13T08:10:46;95468.00;;;30.05;46.29
20027;BME280;10174;42.688;23.344;2023-07-13T08:13:11;95539.63;;;30.65;46.01
20027;BME280;10174;42.688;23.344;2023-07-13T08:15:37;95439.19;;;29.61;45.52
20027;BME280;10174;42.688;23.344;2023-07-13T08:18:03;95517.44;;;30.02;45.89
20027;BME280;10174;42.688;23.344;2023-07-13T08:20:28;95536.59;;;30.26;46.00
20027;BME280;10174;42.688;23.344;2023-07-13T08:22:54;95508.16;;;30.36;44.59
20027;BME280;10174;42.688;23.344;2023-07-13T08:25:19;95534.44;;;30.60;45.08
20027;BME280;10174;42.688;23.344;2023-07-13T08:27:45;95534.56;;;30.82;44.72
20027;BME280;10174;42.688;23.344;2023-07-13T08:30:11;95504.97;;;31.15;44.62
20027;BME280;10174;42.688;23.344;2023-07-13T08:32:36;95524.84;;;31.42;43.88
20027;BME280;10174;42.688;23.344;2023-07-13T08:35:03;95444.38;;;31.20;42.51
20027;BME280;10174;42.688;23.344;2023-07-13T08:37:28;95508.66;;;31.98;41.93
20027;BME280;10174;42.688;23.344;2023-07-13T08:39:54;95430.47;;;32.07;40.63
20027;BME280;10174;42.688;23.344;2023-07-13T08:42:51;95506.28;;;33.32;39.33
20027;BME280;10174;42.688;23.344;2023-07-13T08:45:45;95495.47;;;34.01;38.33
20027;BME280;10174;42.688;23.344;2023-07-13T08:48:26;95486.47;;;35.58;34.57
20027;BME280;10174;42.688;23.344;2023-07-13T08:50:58;95493.16;;;36.59;33.23
20027;BME280;10174;42.688;23.344;2023-07-13T08:53:33;95477.53;;;38.96;29.11
20027;BME280;10174;42.688;23.344;2023-07-13T08:56:00;95508.03;;;38.81;30.06
20027;BME280;10174;42.688;23.344;2023-07-13T08:58:26;95508.19;;;39.03;29.97
20027;BME280;10174;42.688;23.344;2023-07-13T09:03:26;95504.66;;;38.57;29.41
20027;BME280;10174;42.688;23.344;2023-07-13T09:05:58;95450.19;;;38.41;29.71
20027;BME280;10174;42.688;23.344;2023-07-13T09:08:36;95528.56;;;38.61;29.23
20027;BME280;10174;42.688;23.344;2023-07-13T09:11:26;95481.75;;;38.88;28.62
20027;BME280;10174;42.688;23.344;2023-07-13T09:14:40;95546.25;;;40.23;27.23
20027;BME280;10174;42.688;23.344;2023-07-13T09:17:19;95532.09;;;39.88;27.24
20027;BME280;10174;42.688;23.344;2023-07-13T09:19:56;95455.94;;;40.56;25.65
20027;BME280;10174;42.688;23.344;2023-07-13T09:22:24;95514.34;;;39.53;27.45
20027;BME280;10174;42.688;23.344;2023-07-13T09:24:55;95531.44;;;39.71;27.69
20027;BME280;10174;42.688;23.344;2023-07-13T09:27:26;95534.16;;;41.06;26.39
20027;BME280;10174;42.688;23.344;2023-07-13T09:30:04;95532.22;;;40.58;26.55
20027;BME280;10174;42.688;23.344;2023-07-13T09:32:37;95452.06;;;40.85;25.75
20027;BME280;10174;42.688;23.344;2023-07-13T09:35:10;95508.13;;;42.27;25.21
20027;BME280;10174;42.688;23.344;2023-07-13T09:37:37;95518.56;;;44.23;23.20
20027;BME280;10174;42.688;23.344;2023-07-13T09:40:03;95515.31;;;43.30;23.42
20027;BME280;10174;42.688;23.344;2023-07-13T09:42:31;95467.75;;;41.49;24.96
20027;BME280;10174;42.688;23.344;2023-07-13T09:45:01;95513.72;;;41.37;24.94
20027;BME280;10174;42.688;23.344;2023-07-13T09:47:39;95512.66;;;40.42;26.21
20027;BME280;10174;42.688;23.344;2023-07-13T09:50:10;95489.34;;;42.70;24.11
20027;BME280;10174;42.688;23.344;2023-07-13T09:52:46;95485.00;;;40.98;25.60
20027;BME280;10174;42.688;23.344;2023-07-13T09:57:50;95487.34;;;40.07;26.95
20027;BME280;10174;42.688;23.344;2023-07-13T10:00:23;95484.31;;;40.49;26.41
20027;BME280;10174;42.688;23.344;2023-07-13T10:02:59;95484.69;;;41.58;25.45
20027;BME280;10174;42.688;23.344;2023-07-13T10:05:25;95473.34;;;42.67;23.79
20027;BME280;10174;42.688;23.344;2023-07-13T10:07:51;95463.66;;;43.72;23.02
20027;BME280;10174;42.688;23.344;2023-07-13T10:10:19;95464.81;;;43.14;23.45
20027;BME280;10174;42.688;23.344;2023-07-13T10:12:46;95459.59;;;44.70;21.39
20027;BME280;10174;42.688;23.344;2023-07-13T10:15:18;95465.13;;;43.06;22.92
20027;BME280;10174;42.688;23.344;2023-07-13T10:17:44;95463.09;;;44.95;21.92
20027;BME280;10174;42.688;23.344;2023-07-13T10:20:10;95450.94;;;45.69;21.02
20027;BME280;10174;42.688;23.344;2023-07-13T10:25:24;95445.81;;;44.39;19.21
20027;BME280;10174;42.688;23.344;2023-07-13T10:28:37;95367.66;;;42.68;20.58
20027;BME280;10174;42.688;23.344;2023-07-13T10:30:40;95437.00;;;43.64;20.20
20027;BME280;10174;42.688;23.344;2023-07-13T10:33:13;95445.22;;;43.86;20.16
20027;BME280;10174;42.688;23.344;2023-07-13T10:35:43;95434.75;;;43.35;18.79
20027;BME280;10174;42.688;23.344;2023-07-13T10:38:15;95438.91;;;44.16;19.27
20027;BME280;10174;42.688;23.344;2023-07-13T10:41:02;95435.06;;;43.70;19.54
20027;BME280;10174;42.688;23.344;2023-07-13T10:43:52;95435.28;;;44.93;19.10
20027;BME280;10174;42.688;23.344;2023-07-13T10:46:22;95393.88;;;44.03;18.61
20027;BME280;10174;42.688;23.344;2023-07-13T10:48:52;95443.28;;;41.37;20.23
20027;BME280;10174;42.688;23.344;2023-07-13T10:51:19;95431.16;;;41.58;20.50
20027;BME280;10174;42.688;23.344;2023-07-13T10:53:46;95375.97;;;41.29;19.50
20027;BME280;10174;42.688;23.344;2023-07-13T10:56:31;95366.13;;;40.05;20.36
20027;BME280;10174;42.688;23.344;2023-07-13T10:59:26;95422.69;;;39.94;21.03
20027;BME280;10174;42.688;23.344;2023-07-13T11:02:10;95418.41;;;40.15;20.58
20027;BME280;10174;42.688;23.344;2023-07-13T11:04:56;95414.66;;;40.85;20.81
20027;BME280;10174;42.688;23.344;2023-07-13T11:07:28;95401.59;;;43.02;18.71
20027;BME280;10174;42.688;23.344;2023-07-13T11:09:59;95402.13;;;42.72;19.14
20027;BME280;10174;42.688;23.344;2023-07-13T11:28:13;95295.72;;;40.93;20.20
20027;BME280;10174;42.688;23.344;2023-07-13T11:33:25;95377.91;;;38.88;22.62
20027;BME280;10174;42.688;23.344;2023-07-13T11:38:41;95370.13;;;36.96;25.31
20027;BME280;10174;42.688;23.344;2023-07-13T11:41:43;95358.50;;;36.41;25.15
20027;BME280;10174;42.688;23.344;2023-07-13T11:46:49;95364.38;;;36.26;26.04
20027;BME280;10174;42.688;23.344;2023-07-13T11:49:17;95337.59;;;36.05;25.73
20027;BME280;10174;42.688;23.344;2023-07-13T11:51:44;95353.44;;;36.52;26.55
20027;BME280;10174;42.688;23.344;2023-07-13T11:56:51;95352.84;;;36.00;27.44
20027;BME280;10174;42.688;23.344;2023-07-13T11:59:18;95350.00;;;36.24;26.85
20027;BME280;10174;42.688;23.344;2023-07-13T12:01:49;95308.75;;;36.12;26.37
20027;BME280;10174;42.688;23.344;2023-07-13T12:04:31;95351.78;;;36.14;27.45
20027;BME280;10174;42.688;23.344;2023-07-13T12:07:15;95329.50;;;36.11;27.62
20027;BME280;10174;42.688;23.344;2023-07-13T12:09:42;95346.19;;;36.14;27.38
20027;BME280;10174;42.688;23.344;2023-07-13T12:12:12;95340.47;;;35.81;26.53
20027;BME280;10174;42.688;23.344;2023-07-13T12:14:38;95324.84;;;35.37;26.84
20027;BME280;10174;42.688;23.344;2023-07-13T12:17:24;95278.47;;;35.43;27.80
20027;BME280;10174;42.688;23.344;2023-07-13T12:19:52;95321.72;;;35.58;27.56
20027;BME280;10174;42.688;23.344;2023-07-13T12:22:19;95307.38;;;35.56;26.74
20027;BME280;10174;42.688;23.344;2023-07-13T12:24:46;95291.22;;;35.67;26.43
20027;BME280;10174;42.688;23.344;2023-07-13T12:27:26;95310.59;;;35.98;25.80
20027;BME280;10174;42.688;23.344;2023-07-13T12:29:58;95309.81;;;35.54;27.01
20027;BME280;10174;42.688;23.344;2023-07-13T12:32:25;95304.41;;;35.87;27.07
20027;BME280;10174;42.688;23.344;2023-07-13T12:35:14;95296.81;;;35.67;27.50
20027;BME280;10174;42.688;23.344;2023-07-13T12:37:44;95292.84;;;35.65;26.91
20027;BME280;10174;42.688;23.344;2023-07-13T12:40:16;95281.22;;;35.46;27.21
20027;BME280;10174;42.688;23.344;2023-07-13T12:42:46;95280.63;;;35.79;26.86
20027;BME280;10174;42.688;23.344;2023-07-13T12:45:20;95280.63;;;35.79;26.16
20027;BME280;10174;42.688;23.344;2023-07-13T12:47:53;95264.66;;;35.79;25.79
20027;BME280;10174;42.688;23.344;2023-07-13T12:50:22;95265.47;;;35.80;26.06
20027;BME280;10174;42.688;23.344;2023-07-13T12:52:54;95281.28;;;35.87;25.69
20027;BME280;10174;42.688;23.344;2023-07-13T12:55:21;95273.94;;;35.96;26.27
20027;BME280;10174;42.688;23.344;2023-07-13T12:57:55;95269.34;;;35.86;26.28
20027;BME280;10174;42.688;23.344;2023-07-13T13:00:30;95278.22;;;36.01;25.21
20027;BME280;10174;42.688;23.344;2023-07-13T13:03:00;95268.47;;;35.89;26.48
20027;BME280;10174;42.688;23.344;2023-07-13T13:05:29;95272.19;;;36.02;26.00
20027;BME280;10174;42.688;23.344;2023-07-13T13:07:55;95242.25;;;35.83;25.62
20027;BME280;10174;42.688;23.344;2023-07-13T13:10:20;95205.13;;;35.62;25.32
20027;BME280;10174;42.688;23.344;2023-07-13T13:12:46;95253.97;;;36.14;25.44
20027;BME280;10174;42.688;23.344;2023-07-13T13:15:13;95242.16;;;36.27;25.38
20027;BME280;10174;42.688;23.344;2023-07-13T13:17:39;95167.91;;;35.89;25.95
20027;BME280;10174;42.688;23.344;2023-07-13T13:20:14;95243.72;;;36.28;24.84
20027;BME280;10174;42.688;23.344;2023-07-13T13:22:41;95239.63;;;36.32;24.77
20027;BME280;10174;42.688;23.344;2023-07-13T13:25:13;95153.34;;;35.58;25.39
20027;BME280;10174;42.688;23.344;2023-07-13T13:27:43;95246.00;;;36.33;25.54
20027;BME280;10174;42.688;23.344;2023-07-13T13:30:12;95239.91;;;36.38;25.45